x

South Santa Rosa Is. Ca (46069) Wave Buoy

6:50 - Mon 25th Jul 2016 All times are PDT. -7 hours from GMT.

  • Sig Wave height 5.9ft
  • Swell Direction
  • Peak Period 10s
  • Average Period 7s
  • Wind
    13mph, 18mph gusts
  • Sea Temp 67°f
  • Ar Temp 61°f
  • Sea Pressure 1012.3mb
  • South Santa Rosa Is. Ca
  • South Santa Rosa Is. Ca

More Historic Weather Station data

Upgrade to MSW Pro to gain access to the past 30 days of data for over 8000 Wavebouys and Weather Stations around the globe.

Join Pro

Comparision Forecast

View Surf forecast
   
Seg 07/25 6:50 6ft 10s 7s 13 18 mph 1012.3mb 67f 61f
5:50 5.5ft 10s 7s 16 18 mph 1012.2mb 67f 62f
4:50 6ft 10s 8s 13 16 mph 1012.8mb 67f 63f
3:50 6ft 10s 8s 13 16 mph 1013.4mb 67f 63f
2:50 6ft 8s 8s 11
mph
1014.1mb 67f 63f
1:50 5ft 9s 7s 7
mph
1014.9mb 68f 64f
12:50 5.5ft 9s 7s 4 7 mph 1015.3mb 67f 63f
10:50 6ft 9s 7s 4 7 mph 1015.6mb 67f 62f
9:50 6ft 15s 7s 4 7 mph 1015.3mb 67f 61f
8:50 6.5ft 10s 8s 4 7 mph 1015.1mb 67f 60f
7:50 6ft 10s 7s 7 9 mph 1014.5mb 66f 60f
6:50 6ft 10s 8s 7 9 mph 1014.1mb 67f 59f
4:50 7ft 10s 8s 7 11 mph 1013.4mb 66f 58f
3:50 7.5ft 10s 8s 2 4 mph 1013.4mb 66f 58f
2:50 7ft 10s 8s 2 4 mph 1013.2mb 66f 58f
1:50 7ft 10s 8s 4 9 mph 1013.2mb 66f 57f
12:50 7ft 9s 8s 7 9 mph 1013.4mb 65f 57f
Dom 07/24 11:50 7ft 10s 7s 11 13 mph 1013.2mb 65f 58f
10:50 7ft 10s 7s 13 18 mph 1013.1mb 66f 58f
9:50 7ft 10s 7s 16 18 mph 1012.9mb 66f 59f
8:50 7ft 9s 7s 16 18 mph 1012.5mb 66f 60f
7:50 7ft 9s 7s 18 22 mph 1012.1mb 66f 60f
6:50 7ft 10s 8s 18 20 mph 1012.1mb 66f 60f
5:50 5.5ft 10s 7s 16 18 mph 1012.1mb 67f 61f
4:50 6ft 10s 7s 16 18 mph 1012.4mb 67f 62f
3:50 7ft 9s 7s 13 16 mph 1012.6mb 67f 62f
2:50 6ft 9s 7s 11 13 mph 1013.3mb 66f 63f
1:50 6.5ft 9s 7s 7 9 mph 1013.5mb 65f 67f
12:50 7.5ft 9s 7s 4
mph
1013.5mb 65f 67f
11:50 7ft 9s 7s 4 9 mph 1013.4mb 65f 66f
10:50 7ft 9s 7s 9 11 mph 1012.9mb 65f 63f
9:50 7ft 9s 7s 9 11 mph 1012.5mb 65f 62f
8:50 7.5ft 9s 7s 13 16 mph 1011.8mb 65f 62f
7:50 8ft 9s 8s 13 16 mph 1011.3mb 65f 62f
6:50 7.5ft 9s 8s 11 13 mph 1010.6mb 65f 62f
5:50 8ft 9s 8s 11 13 mph 1010mb 65f 62f
4:50 8ft 9s 8s 13 16 mph 1009.6mb 65f 61f
3:50 7ft 10s 8s 11 13 mph 1009.2mb 64f 62f
2:50 8ft 10s 8s 11 13 mph 1009.3mb 64f 61f
1:50 7.5ft 9s 8s 11 13 mph 1009.3mb 61f 60f
12:50 8ft 9s 7s 13 16 mph 1009.5mb 61f 60f
Sáb 07/23 11:50 8.5ft 9s 7s 16 18 mph 1009.7mb 61f 60f
10:50 9.5ft 9s 7s 16 20 mph 1009.8mb 61f 60f
9:50 9ft 8s 7s 20 22 mph 1009.5mb 61f 60f
8:50 8ft 8s 7s 20 25 mph 1009.2mb 61f 60f
7:50 8.5ft 8s 7s 22 27 mph 1008.7mb 62f 60f
6:50 8.5ft 9s 6s 25 29 mph 1008.1mb 60f 60f
5:50 9ft 8s 7s 25 29 mph 1008.3mb 60f 60f
4:50 9.5ft 8s 7s 22 27 mph 1009mb 61f 60f
3:50 10ft 8s 7s 25 31 mph 1008.8mb 61f 60f
2:50 9ft 8s 6s 22 27 mph 1009.6mb 60f 60f
1:50 9ft 8s 7s 27 34 mph 1009.3mb 60f 60f
12:50 8ft 8s 6s 25 31 mph 1009.7mb 60f 60f
11:50 8.5ft 8s 6s 27 34 mph 1009.9mb 60f 60f
10:50 9ft 8s 7s 25 31 mph 1010.1mb 60f 60f
9:50 9.5ft 8s 7s 25 27 mph 1010.7mb 60f 60f
8:50 10ft 9s 7s 25 27 mph 1010.4mb 60f 60f
7:50 9.5ft 8s 7s 27 34 mph 1009.5mb 60f 60f
6:50 10ft 8s 7s 29 36 mph 1008.8mb 60f 60f
5:50 9ft 8s 6s 31 38 mph 1008.8mb 61f 60f
4:50 9ft 8s 6s 29 34 mph 1009mb 61f 60f
3:50 8.5ft 8s 7s 29 34 mph 1009.6mb 61f 60f
2:50 9.5ft 8s 7s 25 31 mph 1010.2mb 62f 60f
1:50 8.5ft 8s 6s 29 38 mph 1009.9mb 59f 60f
12:50 9.5ft 8s 6s 31 38 mph 1010.5mb 57f 60f
Sex 07/22 11:50 9.5ft 8s 6s 31 38 mph 1010.9mb 56f 60f
10:50 9ft 8s 6s 27 36 mph 1011.7mb 57f 60f
9:50 9ft 8s 6s 27 34 mph 1012.3mb 60f 61f
8:50 9ft 8s 6s 27 31 mph 1012.3mb 60f 61f
7:50 8ft 7s 6s 27 31 mph 1012.1mb 60f 61f
6:50 9ft 8s 6s 29 34 mph 1011.9mb 60f 61f
5:50 8ft 8s 6s 25 31 mph 1012.3mb 60f 62f
4:50 8ft 16s 6s 25 31 mph 1012.5mb 60f 61f
3:50 8ft 8s 6s 27 34 mph 1012.7mb 60f 60f
2:50 8ft 8s 6s 18 22 mph 1014mb 60f 60f
1:50 8ft 8s 6s 25 29 mph 1014.1mb 60f 60f
12:50 8ft 8s 6s 25 31 mph 1014.8mb 59f 60f
10:50 7.5ft 8s 6s 22 27 mph 1015.2mb 60f 60f
9:50 7ft 8s 6s 27 29 mph 1014.6mb 60f 60f
8:50 7.5ft 8s 6s 25 29 mph 1014.7mb 60f 60f
7:50 8ft 8s 6s 25 31 mph 1014mb 60f 60f
6:50 7ft 8s 6s 27 34 mph 1013.6mb 60f 60f
5:50 8ft 8s 6s 27 31 mph 1013mb 60f 60f
4:50 7ft 8s 6s 29 36 mph 1012.4mb 61f 60f
3:50 8ft 8s 6s 27 34 mph 1012.8mb 61f 60f